Time;durP1;ratioP1;P1;durP2;ratioP2;P2;SDS_P1;SDS_P2;PMS_P1;PMS_P2;Temp;Humidity;BMP_temperature;BMP_pressure;BME280_temperature;BME280_humidity;BME280_pressure;Samples;Min_cycle;Max_cycle;Signal;HPM_P1;HPM_P2
2021/12/05 00:22:05;;;;;;;18.40;11.82;;;2.70;99.90;;;;;;5061077;28;20216;-59
2021/12/05 00:24:37;;;;;;;21.60;12.45;;;2.80;99.90;;;;;;5046116;28;20207;-56
2021/12/05 00:27:15;;;;;;;19.52;12.38;;;2.70;99.90;;;;;;5061623;28;20246;-59
2021/12/05 00:46:13;;;;;;;18.55;12.65;;;2.60;99.90;;;;;;5061720;28;20379;-55
2021/12/05 00:57:16;;;;;;;19.50;12.60;;;2.60;99.90;;;;;;5063650;28;20460;-56
2021/12/05 01:02:38;;;;;;;23.67;13.70;;;2.70;99.90;;;;;;5063461;28;20219;-54
2021/12/05 01:06:19;;;;;;;19.30;12.95;;;2.70;99.90;;;;;;5045954;28;20234;-59
2021/12/05 01:11:10;;;;;;;22.13;11.77;;;2.80;99.90;;;;;;5063036;28;20710;-56
2021/12/05 01:16:11;;;;;;;19.08;12.70;;;2.80;99.90;;;;;;5063168;28;20542;-56
2021/12/05 01:18:40;;;;;;;16.58;11.60;;;2.60;99.90;;;;;;5063235;28;20251;-56
2021/12/05 01:21:13;;;;;;;20.80;12.02;;;2.50;99.90;;;;;;5062731;28;20224;-57
2021/12/05 01:23:56;;;;;;;21.63;12.00;;;2.50;99.90;;;;;;5063435;28;20196;-54
2021/12/05 01:26:44;;;;;;;17.92;12.38;;;2.50;99.90;;;;;;5063034;28;20314;-54
2021/12/05 01:34:42;;;;;;;18.80;13.75;;;2.40;99.90;;;;;;5063254;28;20238;-58
2021/12/05 01:40:04;;;;;;;18.85;12.35;;;2.20;99.90;;;;;;5062841;28;20194;-55
2021/12/05 01:45:44;;;;;;;25.65;13.18;;;2.20;99.90;;;;;;5065491;28;20196;-58
2021/12/05 01:56:55;;;;;;;21.63;13.85;;;2.10;99.90;;;;;;5047989;28;20214;-57
2021/12/05 02:15:37;;;;;;;18.15;11.88;;;2.20;99.90;;;;;;5082054;28;20198;-57
2021/12/05 02:32:52;;;;;;;18.73;14.30;;;1.80;99.90;;;;;;5081822;28;20248;-53
2021/12/05 02:35:13;;;;;;;19.13;14.55;;;1.70;99.90;;;;;;5070966;28;20195;-55
2021/12/05 02:45:27;;;;;;;23.85;13.75;;;1.80;99.90;;;;;;5081481;28;20389;-49
2021/12/05 02:47:55;;;;;;;24.23;16.35;;;2.00;99.90;;;;;;5081356;28;20202;-54
2021/12/05 02:50:26;;;;;;;20.13;15.18;;;2.00;99.90;;;;;;5081174;28;20416;-54
2021/12/05 02:52:58;;;;;;;23.88;15.30;;;2.00;99.90;;;;;;5081496;28;20252;-50
2021/12/05 02:55:39;;;;;;;24.77;16.42;;;1.90;99.90;;;;;;5081764;28;20401;-52
2021/12/05 02:58:19;;;;;;;25.45;17.05;;;1.90;99.90;;;;;;5081297;28;20194;-53
2021/12/05 03:01:08;;;;;;;21.40;15.85;;;2.10;99.90;;;;;;5063545;28;20268;-52
2021/12/05 03:03:37;;;;;;;22.27;16.77;;;2.10;99.90;;;;;;5081167;28;20195;-55
2021/12/05 03:06:16;;;;;;;24.35;15.32;;;2.20;99.90;;;;;;5081501;28;20261;-53
2021/12/05 03:08:47;;;;;;;22.45;15.38;;;2.10;99.90;;;;;;5080930;28;20244;-53
2021/12/05 03:11:15;;;;;;;24.33;16.58;;;2.40;99.90;;;;;;5083185;28;20215;-56
2021/12/05 03:13:42;;;;;;;22.58;16.58;;;2.30;99.90;;;;;;5087129;28;20229;-57
2021/12/05 03:16:12;;;;;;;26.15;16.65;;;2.30;99.90;;;;;;5089257;28;20219;-56
2021/12/05 03:18:40;;;;;;;25.98;19.88;;;2.50;99.90;;;;;;5089217;28;20225;-60
2021/12/05 03:21:08;;;;;;;31.73;20.80;;;2.50;99.90;;;;;;5081848;28;20219;-56
2021/12/05 03:23:39;;;;;;;30.65;18.70;;;2.30;99.90;;;;;;5082805;28;20502;-53
2021/12/05 03:26:08;;;;;;;21.95;16.55;;;2.30;99.90;;;;;;5088538;28;20384;-52
2021/12/05 03:28:36;;;;;;;32.28;20.10;;;2.30;99.90;;;;;;5083111;28;20199;-53
2021/12/05 03:31:04;;;;;;;30.60;20.95;;;2.40;99.90;;;;;;5082200;28;20222;-50
2021/12/05 03:33:31;;;;;;;29.75;21.45;;;2.40;99.90;;;;;;5085886;28;20448;-55
2021/12/05 03:35:59;;;;;;;30.05;20.17;;;2.40;99.90;;;;;;5083159;28;20237;-55
2021/12/05 03:38:26;;;;;;;28.88;19.05;;;2.40;99.90;;;;;;5082142;28;20254;-52
2021/12/05 03:40:54;;;;;;;34.13;22.70;;;2.30;99.90;;;;;;5080586;28;20215;-52
2021/12/05 03:43:21;;;;;;;32.95;20.80;;;2.10;99.90;;;;;;5080895;28;20194;-54
2021/12/05 03:45:54;;;;;;;36.97;22.70;;;1.90;99.90;;;;;;5080124;28;20199;-53
2021/12/05 03:48:24;;;;;;;27.80;20.77;;;2.00;99.90;;;;;;5080162;28;20230;-50
2021/12/05 03:50:54;;;;;;;35.13;23.27;;;2.10;99.90;;;;;;5080035;28;20219;-54
2021/12/05 03:53:21;;;;;;;26.52;20.90;;;2.20;99.90;;;;;;5080030;28;20551;-52
2021/12/05 03:55:53;;;;;;;27.25;20.88;;;2.40;99.90;;;;;;5080065;28;20240;-51
2021/12/05 03:58:22;;;;;;;36.35;23.20;;;2.40;99.90;;;;;;5080219;28;20293;-54
2021/12/05 04:00:54;;;;;;;30.83;20.17;;;2.40;99.90;;;;;;5080068;28;20840;-55
2021/12/05 04:03:24;;;;;;;37.33;21.95;;;2.40;99.90;;;;;;5089653;28;20195;-58
2021/12/05 04:05:51;;;;;;;24.85;18.40;;;2.30;99.90;;;;;;5086443;28;20195;-55
2021/12/05 04:08:23;;;;;;;30.40;21.45;;;2.30;99.90;;;;;;5084468;28;20199;-52
2021/12/05 04:10:53;;;;;;;28.50;19.77;;;2.40;99.90;;;;;;5079331;28;20324;-53
2021/12/05 04:13:21;;;;;;;33.55;22.42;;;2.50;99.90;;;;;;5080056;28;20198;-48
2021/12/05 04:15:52;;;;;;;35.35;21.92;;;2.70;99.90;;;;;;5079938;28;20199;-50
2021/12/05 04:18:21;;;;;;;33.33;21.83;;;2.70;99.90;;;;;;5081753;28;20226;-54
2021/12/05 04:20:51;;;;;;;27.80;20.48;;;2.60;99.90;;;;;;5080941;28;20215;-54
2021/12/05 04:23:19;;;;;;;29.92;19.30;;;2.70;99.90;;;;;;5080349;28;20198;-53
2021/12/05 04:25:50;;;;;;;28.35;19.23;;;2.90;99.90;;;;;;5079670;28;20259;-55
2021/12/05 04:28:18;;;;;;;22.00;16.27;;;2.90;99.90;;;;;;5080016;28;20230;-52
2021/12/05 04:30:46;;;;;;;23.60;17.70;;;2.90;99.90;;;;;;5079298;28;20577;-53
2021/12/05 04:33:14;;;;;;;29.48;18.20;;;2.90;99.90;;;;;;5080032;28;20245;-50
2021/12/05 04:35:41;;;;;;;24.17;16.80;;;2.90;99.90;;;;;;5079946;28;20203;-56
2021/12/05 04:38:08;;;;;;;25.80;16.20;;;2.80;99.90;;;;;;5079647;28;20219;-50
2021/12/05 04:40:35;;;;;;;27.85;16.83;;;2.80;99.90;;;;;;5079487;28;20261;-52
2021/12/05 04:43:05;;;;;;;29.25;17.05;;;3.00;99.90;;;;;;5079468;28;20202;-51
2021/12/05 04:45:33;;;;;;;29.65;17.42;;;2.90;99.90;;;;;;5079787;28;20198;-54
2021/12/05 04:48:03;;;;;;;25.58;16.10;;;2.80;99.90;;;;;;5079883;28;20222;-50
2021/12/05 04:50:31;;;;;;;25.20;15.40;;;2.80;99.90;;;;;;5079354;28;20219;-52
2021/12/05 04:52:59;;;;;;;21.30;16.42;;;2.90;99.90;;;;;;5079642;28;20583;-53
2021/12/05 04:55:26;;;;;;;20.77;15.45;;;2.80;99.90;;;;;;5078909;28;20199;-51
2021/12/05 04:57:55;;;;;;;20.58;14.50;;;2.70;99.90;;;;;;5079417;28;20238;-55
2021/12/05 05:00:27;;;;;;;25.88;17.88;;;2.60;99.90;;;;;;5079027;28;20383;-54
2021/12/05 05:02:56;;;;;;;28.60;17.98;;;2.50;99.90;;;;;;5079433;28;20202;-49
2021/12/05 05:05:27;;;;;;;26.00;17.65;;;2.70;99.90;;;;;;5080286;28;20263;-50
2021/12/05 05:07:54;;;;;;;22.10;16.05;;;2.80;99.90;;;;;;5080898;28;20252;-52
2021/12/05 05:10:26;;;;;;;28.08;17.25;;;2.70;99.90;;;;;;5079480;28;20227;-52
2021/12/05 05:12:54;;;;;;;28.27;16.60;;;2.70;99.90;;;;;;5079533;28;20209;-51
2021/12/05 05:15:25;;;;;;;25.52;15.32;;;2.90;99.90;;;;;;5079817;28;20199;-52
2021/12/05 05:17:54;;;;;;;21.73;15.10;;;3.00;99.90;;;;;;5079145;28;20264;-56
2021/12/05 05:20:42;;;;;;;25.45;15.85;;;2.90;99.90;;;;;;5079229;28;20199;-54
2021/12/05 05:23:26;;;;;;;24.60;14.52;;;2.80;99.90;;;;;;5079053;28;20241;-52
2021/12/05 05:50:24;;;;;;;24.58;15.35;;;3.00;99.90;;;;;;5071345;28;20270;-57
2021/12/05 05:52:52;;;;;;;25.92;14.50;;;3.00;99.90;;;;;;5082380;28;20199;-52
2021/12/05 05:55:19;;;;;;;28.23;17.92;;;2.90;99.90;;;;;;5082290;28;20211;-55
2021/12/05 06:00:35;;;;;;;22.92;16.23;;;2.80;99.90;;;;;;5074192;28;20210;-53
2021/12/05 06:03:21;;;;;;;25.95;15.80;;;2.80;99.90;;;;;;5074321;28;20229;-55
2021/12/05 06:05:50;;;;;;;29.33;16.70;;;2.60;99.90;;;;;;5072794;28;20405;-50
2021/12/05 06:08:19;;;;;;;24.05;16.58;;;2.50;99.90;;;;;;5073892;28;20212;-55
2021/12/05 06:10:47;;;;;;;26.42;16.98;;;2.40;99.90;;;;;;5074642;28;20257;-57
2021/12/05 06:13:17;;;;;;;24.17;17.65;;;2.40;99.90;;;;;;5073075;28;20211;-53
2021/12/05 06:15:45;;;;;;;28.85;16.60;;;2.50;99.90;;;;;;5075177;28;20244;-51
2021/12/05 06:18:12;;;;;;;24.45;16.05;;;2.50;99.90;;;;;;5074279;28;20223;-52
2021/12/05 06:20:41;;;;;;;25.55;17.00;;;2.30;99.90;;;;;;5082397;28;20226;-50
2021/12/05 06:23:08;;;;;;;23.65;16.60;;;2.70;99.90;;;;;;5076172;28;20199;-50
2021/12/05 06:25:38;;;;;;;25.80;16.80;;;2.70;99.90;;;;;;5075453;28;20237;-48
2021/12/05 06:28:11;;;;;;;23.05;17.42;;;2.50;99.90;;;;;;5074089;28;20395;-53
2021/12/05 06:30:51;;;;;;;26.38;16.35;;;2.40;99.90;;;;;;5075095;28;20278;-53
2021/12/05 06:47:04;;;;;;;25.23;16.20;;;2.70;99.90;;;;;;5077781;28;20203;-52
2021/12/05 06:49:32;;;;;;;20.48;14.75;;;3.00;99.90;;;;;;5080366;28;20249;-53
2021/12/05 06:51:59;;;;;;;24.45;16.83;;;2.90;99.90;;;;;;5073674;28;20223;-53
2021/12/05 06:54:26;;;;;;;20.55;13.50;;;2.90;99.90;;;;;;5075629;28;20205;-50
2021/12/05 06:56:54;;;;;;;26.73;15.82;;;3.00;99.90;;;;;;5073339;28;20276;-53
2021/12/05 06:59:21;;;;;;;22.75;15.20;;;3.10;99.90;;;;;;5074710;28;20208;-49
2021/12/05 07:01:49;;;;;;;28.60;18.73;;;3.00;99.90;;;;;;5073346;28;20216;-54
2021/12/05 07:07:03;;;;;;;25.75;16.95;;;2.90;99.90;;;;;;5077473;28;20191;-52
2021/12/05 07:09:31;;;;;;;24.05;15.68;;;3.00;99.90;;;;;;5079850;28;20199;-54
2021/12/05 07:14:49;;;;;;;23.35;15.70;;;2.90;99.90;;;;;;5077472;28;20515;-50
2021/12/05 07:22:35;;;;;;;22.25;16.10;;;2.90;99.90;;;;;;5079659;28;20214;-50
2021/12/05 07:25:14;;;;;;;21.88;14.80;;;2.90;99.90;;;;;;5077179;28;20194;-51
2021/12/05 07:41:44;;;;;;;24.55;16.77;;;3.00;99.90;;;;;;5078784;28;20291;-49
2021/12/05 07:44:11;;;;;;;24.13;16.58;;;2.90;99.90;;;;;;5073239;28;20196;-51
2021/12/05 07:46:39;;;;;;;22.83;15.88;;;3.00;99.90;;;;;;5074018;28;20207;-52
2021/12/05 07:49:10;;;;;;;30.00;19.55;;;2.80;99.90;;;;;;5081196;28;20210;-54
2021/12/05 07:51:41;;;;;;;22.52;15.90;;;2.60;99.90;;;;;;5078191;28;20250;-56
2021/12/05 07:57:06;;;;;;;28.17;18.88;;;2.50;99.90;;;;;;5080189;28;20386;-57
2021/12/05 08:16:03;;;;;;;27.05;16.30;;;3.10;99.90;;;;;;5077063;28;20200;-53
2021/12/05 08:18:31;;;;;;;25.73;17.85;;;3.10;99.90;;;;;;5073940;28;20298;-50
2021/12/05 08:21:01;;;;;;;22.85;17.23;;;3.10;99.90;;;;;;5072193;28;20231;-51
2021/12/05 08:23:29;;;;;;;23.55;15.85;;;3.10;99.90;;;;;;5072918;28;20220;-53
2021/12/05 08:26:06;;;;;;;18.75;14.57;;;3.20;99.90;;;;;;5072310;28;20514;-51
2021/12/05 08:28:57;;;;;;;23.63;14.02;;;3.10;99.90;;;;;;5076112;28;20203;-50
2021/12/05 08:45:51;;;;;;;25.75;20.38;;;3.20;99.90;;;;;;5047840;28;20207;-52
2021/12/05 09:21:55;;;;;;;24.40;16.83;;;3.90;99.90;;;;;;5076925;28;20240;-50
2021/12/05 09:51:11;;;;;;;24.38;14.55;;;4.90;99.90;;;;;;5062940;28;20238;-53
2021/12/05 10:06:43;;;;;;;24.80;18.63;;;5.40;99.90;;;;;;5082385;28;20193;-49
2021/12/05 10:37:10;;;;;;;31.67;20.40;;;5.50;99.90;;;;;;5064637;28;20248;-50
2021/12/05 10:39:39;;;;;;;25.58;19.25;;;5.50;99.90;;;;;;5069871;28;20233;-50
2021/12/05 10:42:40;;;;;;;29.90;19.45;;;5.50;99.90;;;;;;5064448;28;20227;-52
2021/12/05 10:45:35;;;;;;;24.25;16.20;;;5.50;99.90;;;;;;5062833;28;20251;-53
2021/12/05 10:48:10;;;;;;;24.45;16.67;;;5.50;99.90;;;;;;5069357;28;20210;-50
2021/12/05 10:50:44;;;;;;;22.00;17.63;;;5.60;99.90;;;;;;5061265;28;20464;-52
2021/12/05 10:53:30;;;;;;;23.67;16.13;;;5.90;99.90;;;;;;5061516;28;20384;-50
2021/12/05 10:56:07;;;;;;;25.08;16.45;;;6.00;99.90;;;;;;5045895;28;20211;-53
2021/12/05 10:58:48;;;;;;;25.10;17.13;;;6.00;99.90;;;;;;5061505;28;20270;-52
2021/12/05 11:01:25;;;;;;;23.88;16.00;;;6.00;99.90;;;;;;5074517;28;20279;-52
2021/12/05 11:03:57;;;;;;;21.77;15.98;;;5.80;99.90;;;;;;5071116;28;20201;-54
2021/12/05 11:06:24;;;;;;;21.17;15.55;;;5.90;99.90;;;;;;5063451;28;20199;-51
2021/12/05 11:08:56;;;;;;;23.95;16.13;;;6.00;99.90;;;;;;5069374;28;20401;-51
2021/12/05 11:11:24;;;;;;;18.77;14.60;;;5.90;99.90;;;;;;5078920;28;20268;-52
2021/12/05 11:13:52;;;;;;;24.55;17.20;;;6.00;99.90;;;;;;5081651;28;20210;-52
2021/12/05 11:16:39;;;;;;;30.30;18.55;;;6.10;99.90;;;;;;5082107;28;20199;-51
2021/12/05 11:19:21;;;;;;;24.67;16.58;;;6.30;99.90;;;;;;5082486;28;20222;-51
2021/12/05 11:21:59;;;;;;;20.98;15.85;;;6.10;99.90;;;;;;5082149;28;20407;-53
2021/12/05 11:24:35;;;;;;;23.70;15.85;;;6.20;99.90;;;;;;5082255;28;20509;-50
2021/12/05 11:27:26;;;;;;;30.92;18.65;;;6.20;99.90;;;;;;5062960;28;20194;-53
2021/12/05 11:30:03;;;;;;;28.88;18.70;;;6.30;99.90;;;;;;5069119;28;20210;-53
2021/12/05 11:32:38;;;;;;;33.60;21.30;;;6.20;99.90;;;;;;5061095;28;20210;-54
2021/12/05 11:35:25;;;;;;;28.90;17.40;;;6.30;99.90;;;;;;5061191;28;20201;-52
2021/12/05 11:38:02;;;;;;;21.80;16.25;;;6.30;99.90;;;;;;5060919;28;20448;-51
2021/12/05 11:40:41;;;;;;;20.25;16.13;;;6.30;99.90;;;;;;5059585;28;20541;-53
2021/12/05 11:43:11;;;;;;;24.63;17.30;;;6.10;99.90;;;;;;5060761;28;20493;-54
2021/12/05 11:46:01;;;;;;;29.60;18.73;;;6.20;99.90;;;;;;5067122;28;20203;-55
2021/12/05 11:48:34;;;;;;;29.13;17.05;;;6.20;99.90;;;;;;5064053;28;20479;-54
2021/12/05 11:51:17;;;;;;;32.08;18.77;;;6.20;99.90;;;;;;5061431;28;20223;-53
2021/12/05 11:53:52;;;;;;;22.05;15.75;;;6.10;99.90;;;;;;5060676;28;20264;-52
2021/12/05 11:56:43;;;;;;;24.23;16.67;;;5.80;99.90;;;;;;5060354;28;20187;-55
2021/12/05 11:59:19;;;;;;;18.33;15.43;;;5.70;99.90;;;;;;5059924;28;20221;-52
2021/12/05 12:02:17;;;;;;;30.85;16.58;;;5.60;99.90;;;;;;5059753;28;20210;-55
2021/12/05 12:04:54;;;;;;;22.25;16.00;;;5.70;99.90;;;;;;5059020;28;20367;-54
2021/12/05 12:07:24;;;;;;;22.75;15.10;;;6.00;99.90;;;;;;5059898;28;20201;-54
2021/12/05 12:10:01;;;;;;;25.13;16.08;;;6.10;99.90;;;;;;5077664;28;20210;-53
2021/12/05 12:12:28;;;;;;;27.40;17.63;;;6.10;99.90;;;;;;5080715;28;20220;-55
2021/12/05 12:14:56;;;;;;;25.98;17.80;;;6.10;99.90;;;;;;5082756;28;20202;-55
2021/12/05 12:17:24;;;;;;;27.75;18.40;;;6.20;99.90;;;;;;5064197;28;20202;-55
2021/12/05 12:19:54;;;;;;;25.70;17.85;;;6.20;99.90;;;;;;5081151;28;20222;-52
2021/12/05 12:22:23;;;;;;;27.58;19.80;;;6.40;99.90;;;;;;5080857;28;20252;-55
2021/12/05 12:24:54;;;;;;;24.92;18.20;;;6.40;99.90;;;;;;5079548;28;20252;-51
2021/12/05 12:27:22;;;;;;;26.80;18.25;;;6.30;99.90;;;;;;5081039;28;20207;-52
2021/12/05 12:29:52;;;;;;;29.38;19.60;;;6.30;99.90;;;;;;5079743;28;20253;-53
2021/12/05 12:32:26;;;;;;;25.38;18.17;;;6.30;99.90;;;;;;5080081;28;20268;-54
2021/12/05 12:35:10;;;;;;;26.50;18.20;;;6.40;99.90;;;;;;5079523;28;20202;-52
2021/12/05 12:37:57;;;;;;;26.92;19.30;;;6.40;99.90;;;;;;5080081;28;20206;-55
2021/12/05 12:40:54;;;;;;;27.33;18.27;;;6.50;99.90;;;;;;5079049;28;20221;-53
2021/12/05 12:43:37;;;;;;;28.55;17.67;;;6.40;99.90;;;;;;5079446;28;20207;-52
2021/12/05 12:46:36;;;;;;;25.35;18.45;;;6.20;99.90;;;;;;5079170;28;20200;-54
2021/12/05 12:49:15;;;;;;;25.08;17.85;;;6.20;99.90;;;;;;5079427;28;20230;-54
2021/12/05 12:51:46;;;;;;;26.98;17.02;;;6.10;99.90;;;;;;5080893;28;20314;-50
2021/12/05 12:54:43;;;;;;;28.63;17.90;;;6.10;99.90;;;;;;5082711;28;20213;-52
2021/12/05 12:57:34;;;;;;;31.98;19.00;;;6.20;99.90;;;;;;5075347;28;20263;-52
2021/12/05 13:00:11;;;;;;;28.02;18.60;;;6.20;99.90;;;;;;5082488;28;20272;-52
2021/12/05 13:11:17;;;;;;;29.13;19.35;;;6.10;99.90;;;;;;5083845;28;20225;-51
2021/12/05 13:13:57;;;;;;;27.85;18.27;;;6.20;99.90;;;;;;5083496;28;20190;-53
2021/12/05 13:16:29;;;;;;;24.98;18.92;;;6.20;99.90;;;;;;5078542;28;20400;-50
2021/12/05 13:19:19;;;;;;;27.52;19.52;;;6.20;99.90;;;;;;5066270;28;20219;-52
2021/12/05 13:21:53;;;;;;;34.67;20.70;;;6.20;99.90;;;;;;5065753;28;20215;-51
2021/12/05 13:24:33;;;;;;;27.05;20.42;;;6.00;99.90;;;;;;5076921;28;20227;-53
2021/12/05 13:27:07;;;;;;;35.17;21.23;;;6.00;99.90;;;;;;5081834;28;20237;-51
2021/12/05 13:29:51;;;;;;;28.85;19.58;;;5.90;99.90;;;;;;5064888;28;20206;-52
2021/12/05 13:32:26;;;;;;;35.00;20.25;;;5.90;99.90;;;;;;5081977;28;20237;-52
2021/12/05 13:35:07;;;;;;;28.95;21.13;;;5.80;99.90;;;;;;5082658;28;20228;-53
2021/12/05 13:37:48;;;;;;;30.77;19.15;;;5.70;99.90;;;;;;5063630;28;20205;-56
2021/12/05 13:40:24;;;;;;;25.35;16.85;;;5.70;99.90;;;;;;5062431;28;20230;-53
2021/12/05 13:43:00;;;;;;;31.83;18.52;;;5.80;99.90;;;;;;5063100;28;20256;-54
2021/12/05 13:45:27;;;;;;;22.33;16.80;;;5.30;99.90;;;;;;5063115;28;20220;-51
2021/12/05 13:47:54;;;;;;;33.83;19.60;;;5.20;99.90;;;;;;5067814;28;20432;-53
2021/12/05 13:50:34;;;;;;;27.48;18.05;;;5.10;99.90;;;;;;5078638;28;20207;-54
2021/12/05 13:53:02;;;;;;;25.83;17.00;;;5.10;99.90;;;;;;5062906;28;20245;-52
2021/12/05 13:55:40;;;;;;;29.20;18.45;;;5.00;99.90;;;;;;5063322;28;20500;-52
2021/12/05 13:58:17;;;;;;;31.52;20.65;;;5.00;99.90;;;;;;5075054;28;20247;-54
2021/12/05 14:00:55;;;;;;;23.63;15.73;;;4.90;99.90;;;;;;5082786;28;20252;-51
2021/12/05 14:03:46;;;;;;;31.65;21.67;;;4.80;99.90;;;;;;5082112;28;20197;-56
2021/12/05 14:06:42;;;;;;;32.05;20.73;;;4.60;99.90;;;;;;5083407;28;20202;-51
2021/12/05 14:09:12;;;;;;;22.48;18.05;;;4.60;99.90;;;;;;5082434;28;20200;-54
2021/12/05 14:12:07;;;;;;;30.38;17.88;;;4.60;99.90;;;;;;5081946;28;20628;-55
2021/12/05 14:14:48;;;;;;;33.20;20.83;;;4.40;99.90;;;;;;5082582;28;20202;-54
2021/12/05 14:17:19;;;;;;;33.38;20.70;;;4.30;99.90;;;;;;5082077;28;20263;-52
2021/12/05 14:19:50;;;;;;;31.73;19.73;;;4.40;99.90;;;;;;5081633;28;20284;-53
2021/12/05 14:22:19;;;;;;;31.95;17.33;;;4.60;99.90;;;;;;5082401;28;20420;-51
2021/12/05 14:24:51;;;;;;;30.77;19.48;;;4.60;99.90;;;;;;5080084;28;20267;-50
2021/12/05 14:27:23;;;;;;;25.08;17.88;;;4.40;99.90;;;;;;5079330;28;20202;-55
2021/12/05 14:29:52;;;;;;;23.35;16.48;;;4.60;99.90;;;;;;5070465;28;20230;-51
2021/12/05 14:32:29;;;;;;;28.90;20.48;;;4.70;99.90;;;;;;5070475;28;20247;-54
2021/12/05 14:35:08;;;;;;;25.40;16.05;;;4.60;99.90;;;;;;5083435;28;20231;-54
2021/12/05 14:37:39;;;;;;;29.67;19.15;;;4.60;99.90;;;;;;5081922;28;20212;-51
2021/12/05 14:40:12;;;;;;;31.85;19.38;;;4.40;99.90;;;;;;5081348;28;20605;-55
2021/12/05 14:42:44;;;;;;;34.40;21.60;;;4.40;99.90;;;;;;5080689;28;20233;-54
2021/12/05 14:45:18;;;;;;;33.67;20.90;;;4.20;99.90;;;;;;5081435;28;20519;-56
2021/12/05 14:47:50;;;;;;;33.00;19.38;;;4.20;99.90;;;;;;5069505;28;20193;-53
2021/12/05 14:50:30;;;;;;;35.50;22.92;;;4.20;99.90;;;;;;5061740;28;20548;-56
2021/12/05 14:53:02;;;;;;;38.00;20.83;;;4.20;99.90;;;;;;5061347;28;20230;-51
2021/12/05 14:55:33;;;;;;;44.75;23.95;;;4.20;99.90;;;;;;5061132;28;20248;-53
2021/12/05 14:58:14;;;;;;;42.38;23.45;;;4.30;99.90;;;;;;5061562;28;20259;-51
2021/12/05 15:00:51;;;;;;;45.10;25.90;;;4.30;99.90;;;;;;5060804;28;20295;-53
2021/12/05 15:03:25;;;;;;;39.15;22.50;;;4.20;99.90;;;;;;5066628;28;20225;-51
2021/12/05 15:05:58;;;;;;;45.90;23.55;;;4.40;99.90;;;;;;5062146;28;20268;-54
2021/12/05 15:08:30;;;;;;;41.22;23.63;;;4.30;99.90;;;;;;5069801;28;20201;-52
2021/12/05 15:11:01;;;;;;;36.47;24.90;;;4.40;99.90;;;;;;5063111;28;20222;-57
2021/12/05 15:13:29;;;;;;;38.42;22.58;;;4.30;99.90;;;;;;5066764;28;20262;-56
2021/12/05 15:15:58;;;;;;;34.45;18.70;;;4.20;99.90;;;;;;5064133;28;20205;-55
2021/12/05 15:18:33;;;;;;;31.85;20.05;;;4.10;99.90;;;;;;5065477;28;20259;-52
2021/12/05 15:21:02;;;;;;;28.45;17.70;;;4.10;99.90;;;;;;5064757;28;20231;-55
2021/12/05 15:23:33;;;;;;;34.75;19.15;;;4.30;99.90;;;;;;5077725;28;20247;-54
2021/12/05 15:26:04;;;;;;;31.75;18.23;;;4.60;99.90;;;;;;5076644;28;20254;-53
2021/12/05 15:28:35;;;;;;;31.60;18.10;;;4.50;99.90;;;;;;5072901;28;20422;-53
2021/12/05 15:31:05;;;;;;;31.10;18.27;;;4.30;99.90;;;;;;5071779;28;20274;-52
2021/12/05 15:33:34;;;;;;;26.42;16.48;;;4.10;99.90;;;;;;5074763;28;20200;-53
2021/12/05 15:36:02;;;;;;;30.30;19.45;;;4.00;99.90;;;;;;5074278;28;20269;-52
2021/12/05 15:38:30;;;;;;;31.98;15.10;;;3.90;99.90;;;;;;5071744;28;20323;-52
2021/12/05 15:41:02;;;;;;;27.10;15.73;;;4.00;99.90;;;;;;5071009;28;20225;-52
2021/12/05 15:43:48;;;;;;;22.95;14.38;;;4.00;99.90;;;;;;5068888;28;20188;-53
2021/12/05 15:46:15;;;;;;;22.38;15.18;;;3.90;99.90;;;;;;5059970;28;20243;-52
2021/12/05 15:48:48;;;;;;;25.17;16.10;;;3.90;99.90;;;;;;5060261;28;20249;-50
2021/12/05 15:51:15;;;;;;;25.50;14.65;;;3.90;99.90;;;;;;5060460;28;20230;-52
2021/12/05 15:53:43;;;;;;;27.63;14.27;;;3.90;99.90;;;;;;5060240;28;20210;-53
2021/12/05 15:56:14;;;;;;;26.55;14.55;;;3.80;99.90;;;;;;5060699;28;20221;-53
2021/12/05 15:58:58;;;;;;;24.33;16.52;;;3.80;99.90;;;;;;5059777;28;20206;-53
2021/12/05 16:01:28;;;;;;;30.65;16.15;;;3.80;99.90;;;;;;5078199;28;20225;-55
2021/12/05 16:04:02;;;;;;;29.13;17.25;;;3.60;99.90;;;;;;5079877;28;20196;-53
2021/12/05 16:06:36;;;;;;;23.25;15.63;;;3.70;99.90;;;;;;5080209;28;20203;-51
2021/12/05 16:09:13;;;;;;;29.30;16.83;;;3.60;99.90;;;;;;5079618;28;20199;-53
2021/12/05 16:11:41;;;;;;;30.25;17.73;;;3.60;99.90;;;;;;5079324;28;20221;-52
2021/12/05 16:14:08;;;;;;;34.47;18.77;;;3.60;99.90;;;;;;5080160;28;20208;-53
2021/12/05 16:16:35;;;;;;;27.42;15.65;;;3.60;99.90;;;;;;5079612;28;20195;-52
2021/12/05 16:19:09;;;;;;;35.25;18.92;;;3.50;99.90;;;;;;5079664;28;20197;-50
2021/12/05 16:21:38;;;;;;;23.08;15.48;;;3.50;99.90;;;;;;5079942;28;20236;-52
2021/12/05 16:24:12;;;;;;;26.90;15.65;;;3.50;99.90;;;;;;5080786;28;20422;-52
2021/12/05 16:26:40;;;;;;;37.88;17.10;;;3.50;99.90;;;;;;5079382;28;20205;-53
2021/12/05 16:29:16;;;;;;;25.65;14.60;;;3.50;99.90;;;;;;5079832;28;20258;-51
2021/12/05 16:31:47;;;;;;;22.00;14.75;;;3.40;99.90;;;;;;5080786;28;20284;-54
2021/12/05 16:34:19;;;;;;;22.88;14.75;;;3.40;99.90;;;;;;5079555;28;20197;-54
2021/12/05 16:36:53;;;;;;;22.05;14.07;;;3.40;99.90;;;;;;5076009;28;20252;-52
2021/12/05 16:39:33;;;;;;;23.95;13.65;;;3.40;99.90;;;;;;5076672;28;20701;-53
2021/12/05 16:42:17;;;;;;;22.45;14.88;;;3.30;99.90;;;;;;5074999;28;20266;-53
2021/12/05 16:44:57;;;;;;;27.80;14.70;;;3.30;99.90;;;;;;5084769;28;20254;-52
2021/12/05 16:47:28;;;;;;;23.45;13.60;;;3.40;99.90;;;;;;5076523;28;20501;-54
2021/12/05 16:50:00;;;;;;;26.75;17.05;;;3.30;99.90;;;;;;5074059;28;20531;-53
2021/12/05 16:52:36;;;;;;;22.75;15.25;;;3.30;99.90;;;;;;5077941;28;20569;-52
2021/12/05 16:55:11;;;;;;;26.13;13.25;;;3.40;99.90;;;;;;5080071;28;20282;-51
2021/12/05 16:57:44;;;;;;;24.55;13.57;;;3.30;99.90;;;;;;5079401;28;20200;-51
2021/12/05 17:00:19;;;;;;;19.27;12.95;;;3.30;99.90;;;;;;5079477;28;20251;-51
2021/12/05 17:02:54;;;;;;;21.75;14.40;;;3.40;99.90;;;;;;5078382;28;20193;-53
2021/12/05 17:05:34;;;;;;;24.25;13.82;;;3.30;99.90;;;;;;5071168;28;20196;-51
2021/12/05 17:08:13;;;;;;;25.73;16.77;;;3.50;99.90;;;;;;5079151;28;20275;-53
2021/12/05 17:11:09;;;;;;;24.30;14.30;;;3.50;99.90;;;;;;5070559;28;20262;-55
2021/12/05 17:13:39;;;;;;;21.30;12.73;;;3.60;99.90;;;;;;5062329;28;20241;-50
2021/12/05 17:16:10;;;;;;;22.70;14.93;;;3.50;99.90;;;;;;5063874;28;20200;-59
2021/12/05 17:18:46;;;;;;;25.00;15.50;;;3.50;99.90;;;;;;5081662;28;20461;-53
2021/12/05 17:21:15;;;;;;;29.95;17.17;;;3.50;99.90;;;;;;5075770;28;20262;-53
2021/12/05 17:23:44;;;;;;;27.48;14.95;;;3.60;99.90;;;;;;5062261;28;20407;-56
2021/12/05 17:26:17;;;;;;;28.95;15.32;;;3.70;99.90;;;;;;5072984;28;20196;-53
2021/12/05 17:28:54;;;;;;;24.48;15.68;;;3.60;99.90;;;;;;5068469;28;20211;-54
2021/12/05 17:31:49;;;;;;;20.67;13.75;;;3.70;99.90;;;;;;5066593;28;20522;-55
2021/12/05 17:34:31;;;;;;;29.52;15.90;;;3.60;99.90;;;;;;5062655;28;20212;-52
2021/12/05 17:37:03;;;;;;;26.83;13.30;;;3.50;99.90;;;;;;5064469;28;20607;-50
2021/12/05 17:39:34;;;;;;;29.23;14.93;;;3.50;99.90;;;;;;5072021;28;20380;-51
2021/12/05 17:42:23;;;;;;;27.52;16.73;;;3.60;99.90;;;;;;5067081;28;20323;-51
2021/12/05 17:44:54;;;;;;;27.00;17.95;;;3.40;99.90;;;;;;5071898;28;20195;-55
2021/12/05 17:47:21;;;;;;;30.42;14.77;;;3.40;99.90;;;;;;5071538;28;20413;-54
2021/12/05 17:49:52;;;;;;;23.80;15.60;;;3.30;99.90;;;;;;5082102;28;20258;-54
2021/12/05 17:52:24;;;;;;;29.90;16.92;;;3.20;99.90;;;;;;5064957;28;20277;-53
2021/12/05 17:55:00;;;;;;;29.88;16.20;;;3.10;99.90;;;;;;5081456;28;20211;-53
2021/12/05 17:57:38;;;;;;;27.42;14.90;;;3.00;99.90;;;;;;5081481;28;20267;-51
2021/12/05 18:00:18;;;;;;;28.25;17.38;;;3.00;99.90;;;;;;5070531;28;20415;-49
2021/12/05 18:02:47;;;;;;;29.10;18.73;;;3.00;99.90;;;;;;5074101;28;20218;-57
2021/12/05 18:05:30;;;;;;;29.33;17.23;;;3.00;99.90;;;;;;5074559;28;20205;-52
2021/12/05 18:08:01;;;;;;;38.88;21.58;;;3.00;99.90;;;;;;5062694;28;20204;-51
2021/12/05 18:10:31;;;;;;;32.85;18.50;;;3.00;99.90;;;;;;5082836;28;20224;-51
2021/12/05 18:13:00;;;;;;;35.10;21.10;;;3.10;99.90;;;;;;5081880;28;20200;-57
2021/12/05 18:15:54;;;;;;;34.42;21.13;;;3.00;99.90;;;;;;5082036;28;20199;-54
2021/12/05 18:18:25;;;;;;;43.05;22.10;;;3.00;99.90;;;;;;5081587;28;20207;-53
2021/12/05 18:20:53;;;;;;;33.60;19.80;;;2.90;99.90;;;;;;5085714;28;20469;-58
2021/12/05 18:23:20;;;;;;;34.83;19.67;;;2.80;99.90;;;;;;5092602;28;20422;-56
2021/12/05 18:25:49;;;;;;;35.10;21.30;;;2.70;99.90;;;;;;5070911;28;20195;-53
2021/12/05 18:28:16;;;;;;;32.72;17.08;;;2.60;99.90;;;;;;5083799;28;20429;-52
2021/12/05 18:30:44;;;;;;;31.95;17.58;;;2.60;99.90;;;;;;5083898;28;20545;-53